createdAt,value
2023-02-24T00:01:24.992Z,5.50
2023-02-24T00:03:49.724Z,5.50
2023-02-24T00:06:13.510Z,5.40
2023-02-24T00:08:37.416Z,5.30
2023-02-24T00:11:00.961Z,5.40
2023-02-24T00:13:24.233Z,5.30
2023-02-24T00:15:47.506Z,5.30
2023-02-24T00:18:10.844Z,5.30
2023-02-24T00:20:36.049Z,5.30
2023-02-24T00:23:00.354Z,5.20
2023-02-24T00:25:23.626Z,5.20
2023-02-24T00:27:46.923Z,5.20
2023-02-24T00:30:12.148Z,5.20
2023-02-24T00:32:36.512Z,5.10
2023-02-24T00:34:59.992Z,5.10
2023-02-24T00:37:24.851Z,5.00
2023-02-24T00:39:48.349Z,5.00
2023-02-24T00:42:12.625Z,5.00
2023-02-24T00:44:38.287Z,4.90
2023-02-24T00:47:02.586Z,4.80
2023-02-24T00:49:26.055Z,4.80
2023-02-24T00:51:54.297Z,4.70
2023-02-24T00:54:20.168Z,4.60
2023-02-24T00:56:45.234Z,4.60
2023-02-24T00:59:08.727Z,4.50
2023-02-24T01:01:35.056Z,4.50
2023-02-24T01:04:00.002Z,4.40
2023-02-24T01:06:27.246Z,4.40
2023-02-24T01:08:55.440Z,4.30
2023-02-24T01:11:40.155Z,4.20
2023-02-24T01:14:06.518Z,4.30
2023-02-24T01:16:29.778Z,4.30
2023-02-24T01:18:53.221Z,4.20
2023-02-24T01:21:17.774Z,4.30
2023-02-24T01:23:42.425Z,4.20
2023-02-24T01:26:06.273Z,4.20
2023-02-24T01:28:31.284Z,4.20
2023-02-24T01:30:55.114Z,4.20
2023-02-24T01:33:21.446Z,4.20
2023-02-24T01:35:44.773Z,4.30
2023-02-24T01:38:08.084Z,4.10
2023-02-24T01:40:31.372Z,4.10
2023-02-24T01:42:56.022Z,4.00
2023-02-24T01:45:28.607Z,4.00
2023-02-24T01:47:54.426Z,4.10
2023-02-24T01:50:21.992Z,4.10
2023-02-24T01:52:47.516Z,4.10
2023-02-24T01:55:20.157Z,4.10
2023-02-24T01:57:46.120Z,4.10
2023-02-24T02:00:31.288Z,4.20
2023-02-24T02:03:00.624Z,4.20
2023-02-24T02:05:24.996Z,4.10
2023-02-24T02:07:50.170Z,4.20
2023-02-24T02:10:14.810Z,4.10
2023-02-24T02:12:44.174Z,4.00
2023-02-24T02:15:09.757Z,4.00
2023-02-24T02:17:42.420Z,4.10
2023-02-24T02:20:37.416Z,4.10
2023-02-24T02:23:40.877Z,4.00
2023-02-24T02:26:26.852Z,4.00
2023-02-24T02:29:14.736Z,4.00
2023-02-24T02:32:17.268Z,4.00
2023-02-24T02:34:50.345Z,4.10
2023-02-24T02:37:19.935Z,4.10
2023-02-24T02:39:52.565Z,4.20
2023-02-24T02:42:30.139Z,4.10
2023-02-24T02:45:00.166Z,4.10
2023-02-24T02:47:30.327Z,4.00
2023-02-24T02:50:00.666Z,4.00
2023-02-24T02:52:32.846Z,4.00
2023-02-24T02:55:01.519Z,4.00
2023-02-24T02:57:32.027Z,3.90
2023-02-24T03:00:02.527Z,3.90
2023-02-24T03:02:39.972Z,3.90
2023-02-24T03:05:09.420Z,3.90
2023-02-24T03:07:40.402Z,3.90
2023-02-24T03:10:17.869Z,3.90
2023-02-24T03:12:42.745Z,3.70
2023-02-24T03:15:10.920Z,3.80
2023-02-24T03:17:42.434Z,3.80
2023-02-24T03:20:16.986Z,3.80
2023-02-24T03:22:46.344Z,3.80
2023-02-24T03:25:10.888Z,3.70
2023-02-24T03:27:43.013Z,3.70
2023-02-24T03:30:17.157Z,3.70
2023-02-24T03:32:51.379Z,3.60
2023-02-24T03:35:21.610Z,3.70
2023-02-24T03:37:47.130Z,3.60
2023-02-24T03:40:14.915Z,3.70
2023-02-24T03:42:42.246Z,3.80
2023-02-24T03:45:06.805Z,3.70
2023-02-24T03:47:30.287Z,3.70
2023-02-24T03:49:53.871Z,3.70
2023-02-24T03:52:33.320Z,3.60
2023-02-24T03:55:16.770Z,3.60
2023-02-24T03:58:00.024Z,3.80
2023-02-24T04:00:39.375Z,3.60
2023-02-24T04:03:15.288Z,3.70
2023-02-24T04:05:48.543Z,3.60
2023-02-24T04:08:13.868Z,3.80
2023-02-24T04:10:52.590Z,3.80
2023-02-24T04:13:28.304Z,3.70
2023-02-24T04:16:01.664Z,3.90
2023-02-24T04:18:30.927Z,3.90
2023-02-24T04:20:59.726Z,3.80
2023-02-24T04:23:32.689Z,3.90
2023-02-24T04:25:56.997Z,3.90
2023-02-24T04:28:24.409Z,3.70
2023-02-24T04:30:52.971Z,3.60
2023-02-24T04:33:16.761Z,3.70
2023-02-24T04:35:40.561Z,3.80
2023-02-24T04:38:04.792Z,3.70
2023-02-24T04:40:29.955Z,3.80
2023-02-24T04:42:55.031Z,3.80
2023-02-24T04:45:21.837Z,3.70
2023-02-24T04:47:51.179Z,3.70
2023-02-24T04:50:22.832Z,3.80
2023-02-24T04:52:46.393Z,3.70
2023-02-24T04:55:11.410Z,3.70
2023-02-24T04:57:37.630Z,3.70
2023-02-24T05:00:00.889Z,3.90
2023-02-24T05:02:24.223Z,3.80
2023-02-24T05:04:49.516Z,3.90
2023-02-24T05:07:15.922Z,3.80
2023-02-24T05:09:39.168Z,4.00
2023-02-24T05:12:02.496Z,3.80
2023-02-24T05:14:27.326Z,3.90
2023-02-24T05:16:51.367Z,3.80
2023-02-24T05:19:36.092Z,3.90
2023-02-24T05:21:59.609Z,4.00
2023-02-24T05:24:22.912Z,4.00
2023-02-24T05:26:46.923Z,3.90
2023-02-24T05:29:13.224Z,3.80
2023-02-24T05:31:38.592Z,3.90
2023-02-24T05:34:05.444Z,3.90
2023-02-24T05:36:33.569Z,3.90
2023-02-24T05:39:00.219Z,3.90
2023-02-24T05:41:23.984Z,3.80
2023-02-24T05:43:52.945Z,3.80
2023-02-24T05:46:16.856Z,3.80
2023-02-24T05:48:41.800Z,3.80
2023-02-24T05:51:08.173Z,3.80
2023-02-24T05:53:31.559Z,3.70
2023-02-24T05:55:54.853Z,3.80
2023-02-24T05:58:18.122Z,3.80
2023-02-24T06:00:45.918Z,3.80
2023-02-24T06:03:10.580Z,3.80
2023-02-24T06:05:35.463Z,3.90
2023-02-24T06:08:05.911Z,3.90
2023-02-24T06:10:31.501Z,3.90
2023-02-24T06:12:55.271Z,3.90
2023-02-24T06:15:18.694Z,4.00
2023-02-24T06:17:41.946Z,4.00
2023-02-24T06:20:13.315Z,4.00
2023-02-24T06:22:42.408Z,4.00
2023-02-24T06:25:07.065Z,3.90
2023-02-24T06:27:30.318Z,4.00
2023-02-24T06:29:56.596Z,3.90
2023-02-24T06:32:22.090Z,4.00
2023-02-24T06:34:46.020Z,3.90
2023-02-24T06:37:19.605Z,3.90
2023-02-24T06:39:44.466Z,4.00
2023-02-24T06:42:08.645Z,3.90
2023-02-24T06:44:32.629Z,4.00
2023-02-24T06:46:56.239Z,4.00
2023-02-24T06:49:19.772Z,4.00
2023-02-24T06:51:43.608Z,4.00
2023-02-24T06:54:07.208Z,4.00
2023-02-24T06:56:38.296Z,4.00
2023-02-24T06:59:01.572Z,4.00
2023-02-24T07:01:28.857Z,4.00
2023-02-24T07:04:17.830Z,4.00
2023-02-24T07:06:44.920Z,3.90
2023-02-24T07:09:11.427Z,3.90
2023-02-24T07:11:41.528Z,4.00
2023-02-24T07:14:05.708Z,3.90
2023-02-24T07:16:29.799Z,4.00
2023-02-24T07:18:56.643Z,3.90
2023-02-24T07:21:23.508Z,4.00
2023-02-24T07:23:49.692Z,4.00
2023-02-24T07:26:15.760Z,3.90
2023-02-24T07:28:42.788Z,4.00
2023-02-24T07:31:08.482Z,4.00
2023-02-24T07:33:34.347Z,4.00
2023-02-24T07:35:57.583Z,4.00
2023-02-24T07:38:23.020Z,4.00
2023-02-24T07:40:47.403Z,4.00
2023-02-24T07:43:11.048Z,4.10
2023-02-24T07:45:36.096Z,4.20
2023-02-24T07:48:01.359Z,4.10
2023-02-24T07:50:25.018Z,4.10
2023-02-24T07:52:48.964Z,4.20
2023-02-24T07:55:13.068Z,4.20
2023-02-24T07:57:37.302Z,4.10
2023-02-24T08:00:01.063Z,4.20
2023-02-24T08:02:36.192Z,4.20
2023-02-24T08:05:02.819Z,4.20
2023-02-24T08:07:26.256Z,4.20
2023-02-24T08:10:03.436Z,4.20
2023-02-24T08:12:27.937Z,4.20
2023-02-24T08:15:00.152Z,4.20
2023-02-24T08:17:26.864Z,4.20
2023-02-24T08:20:14.355Z,4.20
2023-02-24T08:22:37.778Z,4.30
2023-02-24T08:25:05.872Z,4.30
2023-02-24T08:27:30.533Z,4.30
2023-02-24T08:29:59.807Z,4.30
2023-02-24T08:32:24.227Z,4.30
2023-02-24T08:34:50.935Z,4.40
2023-02-24T08:37:15.730Z,4.50
2023-02-24T08:39:39.317Z,4.40
2023-02-24T08:42:02.615Z,4.50
2023-02-24T08:44:27.209Z,4.50
2023-02-24T08:46:52.304Z,4.40
2023-02-24T08:49:17.073Z,4.50
2023-02-24T08:51:43.876Z,4.50
2023-02-24T08:54:11.169Z,4.50
2023-02-24T08:56:35.300Z,4.50
2023-02-24T08:59:05.541Z,4.50
2023-02-24T09:01:34.789Z,4.50
2023-02-24T09:04:00.389Z,4.60
2023-02-24T09:06:40.134Z,4.60
2023-02-24T09:09:22.712Z,4.70
2023-02-24T09:11:47.183Z,4.70
2023-02-24T09:14:26.080Z,4.60
2023-02-24T09:17:12.007Z,4.70
2023-02-24T09:20:01.978Z,4.60
2023-02-24T09:22:32.783Z,4.70
2023-02-24T09:25:17.877Z,4.80
2023-02-24T09:27:42.723Z,4.80
2023-02-24T09:30:08.173Z,4.80
2023-02-24T09:32:34.755Z,4.80
2023-02-24T09:34:58.157Z,4.90
2023-02-24T09:37:25.901Z,4.80
2023-02-24T09:40:15.489Z,4.80
2023-02-24T09:42:47.332Z,4.80
2023-02-24T09:45:19.239Z,4.70
2023-02-24T09:47:57.032Z,4.90
2023-02-24T09:51:03.405Z,4.90
2023-02-24T09:53:41.214Z,4.90
2023-02-24T09:56:16.182Z,4.90
2023-02-24T09:58:48.808Z,5.00
2023-02-24T10:01:34.368Z,5.00
2023-02-24T10:04:14.968Z,5.10
2023-02-24T10:06:46.578Z,5.10
2023-02-24T10:09:23.462Z,5.10
2023-02-24T10:11:54.571Z,5.10
2023-02-24T10:14:19.582Z,5.10
2023-02-24T10:16:46.361Z,5.10
2023-02-24T10:19:23.595Z,5.10
2023-02-24T10:22:02.692Z,5.10
2023-02-24T10:24:35.694Z,5.00
2023-02-24T10:27:08.437Z,5.00
2023-02-24T10:29:46.235Z,5.00
2023-02-24T10:32:23.992Z,5.10
2023-02-24T10:34:49.312Z,5.10
2023-02-24T10:37:27.629Z,5.20
2023-02-24T10:39:52.781Z,5.10
2023-02-24T10:42:25.263Z,5.10
2023-02-24T10:45:03.205Z,5.00
2023-02-24T10:47:31.835Z,5.00
2023-02-24T10:49:58.588Z,5.10
2023-02-24T10:52:37.613Z,5.20
2023-02-24T10:55:24.498Z,5.20
2023-02-24T10:57:59.035Z,5.20
2023-02-24T11:00:51.756Z,5.00
2023-02-24T11:03:32.905Z,4.90
2023-02-24T11:06:20.099Z,4.90
2023-02-24T11:08:54.605Z,4.80
2023-02-24T11:11:25.874Z,4.80
2023-02-24T11:14:10.825Z,4.60
2023-02-24T11:17:06.090Z,4.70
2023-02-24T11:19:31.119Z,4.60
2023-02-24T11:21:56.865Z,4.70
2023-02-24T11:24:20.754Z,4.70
2023-02-24T11:26:44.957Z,4.70
2023-02-24T11:29:47.702Z,4.80
2023-02-24T11:32:40.272Z,4.80
2023-02-24T11:35:16.111Z,4.80
2023-02-24T11:37:43.363Z,4.70
2023-02-24T11:40:16.255Z,4.70
2023-02-24T11:42:46.101Z,4.70
2023-02-24T11:45:23.183Z,4.60
2023-02-24T11:47:53.038Z,4.70
2023-02-24T11:50:32.015Z,4.60
2023-02-24T11:52:57.449Z,4.50
2023-02-24T11:55:34.990Z,4.50
2023-02-24T11:58:01.352Z,4.60
2023-02-24T12:00:28.912Z,4.50
2023-02-24T12:03:02.918Z,4.50
2023-02-24T12:05:34.978Z,4.50
2023-02-24T12:08:05.558Z,4.50
2023-02-24T12:10:32.956Z,4.50
2023-02-24T12:13:08.522Z,4.50
2023-02-24T12:15:35.533Z,4.50
2023-02-24T12:18:08.224Z,4.40
2023-02-24T12:20:38.353Z,4.50
2023-02-24T12:23:11.872Z,4.50
2023-02-24T12:25:53.457Z,4.50
2023-02-24T12:28:30.125Z,4.40
2023-02-24T12:31:15.083Z,4.30
2023-02-24T12:33:53.738Z,4.40
2023-02-24T12:36:44.534Z,4.40
2023-02-24T12:39:16.223Z,4.40
2023-02-24T12:42:06.714Z,4.40
2023-02-24T12:44:40.417Z,4.30
2023-02-24T12:47:11.858Z,4.40
2023-02-24T12:50:25.154Z,4.40
2023-02-24T12:53:01.745Z,4.30
2023-02-24T12:55:32.525Z,4.40
2023-02-24T12:58:06.227Z,4.40
2023-02-24T13:00:39.045Z,4.50
2023-02-24T13:03:23.644Z,4.60
2023-02-24T13:05:57.991Z,4.70
2023-02-24T13:08:40.231Z,4.50
2023-02-24T13:11:13.437Z,4.50
2023-02-24T13:13:48.770Z,4.70
2023-02-24T13:16:13.624Z,4.50
2023-02-24T13:18:39.552Z,4.50
2023-02-24T13:21:10.868Z,4.60
2023-02-24T13:23:34.861Z,4.50
2023-02-24T13:25:58.384Z,4.60
2023-02-24T13:28:27.157Z,4.60
2023-02-24T13:31:00.888Z,4.60
2023-02-24T13:33:30.790Z,4.80
2023-02-24T13:36:13.918Z,4.70
2023-02-24T13:38:39.865Z,4.70
2023-02-24T13:41:10.184Z,4.80
2023-02-24T13:43:33.676Z,4.70
2023-02-24T13:46:01.011Z,4.70
2023-02-24T13:48:55.954Z,4.80
2023-02-24T13:52:01.029Z,4.70
2023-02-24T13:55:03.564Z,4.80
2023-02-24T13:57:50.841Z,4.80
2023-02-24T14:00:27.669Z,4.80
2023-02-24T14:02:53.345Z,4.80
2023-02-24T14:05:24.189Z,4.90
2023-02-24T14:07:51.702Z,4.90
2023-02-24T14:10:20.077Z,4.90
2023-02-24T14:12:44.674Z,4.80
2023-02-24T14:15:16.549Z,4.90
2023-02-24T14:17:39.936Z,5.00
2023-02-24T14:20:15.755Z,4.90
2023-02-24T14:22:44.955Z,4.90
2023-02-24T14:25:13.680Z,5.00
2023-02-24T14:27:38.829Z,5.00
2023-02-24T14:30:02.182Z,5.00
2023-02-24T14:32:28.508Z,5.00
2023-02-24T14:34:53.597Z,5.00
2023-02-24T14:37:17.386Z,5.00
2023-02-24T14:39:40.690Z,5.00
2023-02-24T14:42:15.827Z,5.00
2023-02-24T14:44:44.107Z,5.00
2023-02-24T14:47:14.295Z,5.00
2023-02-24T14:49:37.964Z,5.10
2023-02-24T14:52:06.116Z,5.20
2023-02-24T14:54:44.857Z,5.20
2023-02-24T14:57:15.955Z,5.20
2023-02-24T14:59:41.169Z,5.30
2023-02-24T15:02:11.241Z,5.30
2023-02-24T15:04:37.759Z,5.40
2023-02-24T15:07:03.143Z,5.50
2023-02-24T15:09:35.885Z,5.40
2023-02-24T15:11:59.644Z,5.40
2023-02-24T15:14:29.165Z,5.40
2023-02-24T15:16:56.101Z,5.40
2023-02-24T15:19:28.271Z,5.70
2023-02-24T15:21:51.504Z,5.80
2023-02-24T15:24:20.805Z,5.90
2023-02-24T15:26:52.604Z,5.70
2023-02-24T15:29:22.053Z,5.80
2023-02-24T15:31:49.757Z,5.70
2023-02-24T15:34:19.830Z,5.70
2023-02-24T15:36:43.122Z,5.70
2023-02-24T15:39:10.664Z,5.70
2023-02-24T15:41:42.065Z,5.70
2023-02-24T15:44:06.486Z,5.80
2023-02-24T15:46:33.887Z,5.80
2023-02-24T15:49:02.986Z,5.80
2023-02-24T15:51:35.516Z,5.80
2023-02-24T15:54:01.281Z,5.70
2023-02-24T15:56:24.872Z,5.80
2023-02-24T15:58:48.311Z,5.80
2023-02-24T16:01:13.661Z,5.80
2023-02-24T16:03:37.126Z,5.90
2023-02-24T16:06:01.970Z,5.90
2023-02-24T16:08:25.386Z,6.00
2023-02-24T16:10:50.352Z,5.90
2023-02-24T16:13:20.594Z,5.80
2023-02-24T16:15:46.416Z,5.80
2023-02-24T16:18:20.951Z,5.80
2023-02-24T16:20:48.797Z,5.80
2023-02-24T16:23:14.782Z,5.80
2023-02-24T16:25:42.902Z,5.80
2023-02-24T16:28:06.485Z,5.70
2023-02-24T16:30:31.216Z,5.70
2023-02-24T16:32:54.794Z,5.70
2023-02-24T16:35:18.332Z,5.60
2023-02-24T16:37:42.162Z,5.60
2023-02-24T16:40:24.290Z,5.60
2023-02-24T16:42:48.060Z,5.60
2023-02-24T16:45:12.676Z,5.70
2023-02-24T16:47:35.983Z,5.60
2023-02-24T16:49:59.398Z,5.70
2023-02-24T16:52:24.741Z,5.60
2023-02-24T16:54:48.657Z,5.60
2023-02-24T16:57:13.315Z,5.60
2023-02-24T16:59:36.609Z,5.50
2023-02-24T17:02:02.165Z,5.60
2023-02-24T17:04:25.939Z,5.50
2023-02-24T17:06:49.593Z,5.50
2023-02-24T17:09:15.574Z,5.50
2023-02-24T17:11:38.936Z,5.50
2023-02-24T17:14:03.392Z,5.50
2023-02-24T17:16:26.743Z,5.50
2023-02-24T17:18:50.159Z,5.50
2023-02-24T17:21:15.916Z,5.40
2023-02-24T17:23:39.230Z,5.40
2023-02-24T17:26:03.601Z,5.40
2023-02-24T17:28:26.939Z,5.40
2023-02-24T17:30:52.069Z,5.40
2023-02-24T17:33:15.710Z,5.30
2023-02-24T17:35:38.926Z,5.40
2023-02-24T17:38:02.701Z,5.40
2023-02-24T17:40:26.237Z,5.30
2023-02-24T17:42:49.578Z,5.30
2023-02-24T17:45:14.722Z,5.20
2023-02-24T17:47:39.943Z,5.30
2023-02-24T17:50:04.685Z,5.30
2023-02-24T17:52:29.370Z,5.20
2023-02-24T17:54:53.050Z,5.20
2023-02-24T17:57:16.461Z,5.20
2023-02-24T17:59:39.641Z,5.30
2023-02-24T18:02:03.132Z,5.40
2023-02-24T18:04:27.985Z,5.30
2023-02-24T18:06:51.360Z,5.30
2023-02-24T18:09:14.748Z,5.30
2023-02-24T18:11:38.114Z,5.30
2023-02-24T18:14:01.810Z,5.30
2023-02-24T18:16:25.820Z,5.30
2023-02-24T18:18:49.946Z,5.30
2023-02-24T18:21:14.734Z,5.30
2023-02-24T18:23:40.294Z,5.30
2023-02-24T18:26:05.260Z,5.30
2023-02-24T18:28:28.830Z,5.40
2023-02-24T18:30:52.202Z,5.40
2023-02-24T18:33:15.634Z,5.30
2023-02-24T18:35:40.005Z,5.30
2023-02-24T18:38:04.660Z,5.30
2023-02-24T18:40:28.673Z,5.10
2023-02-24T18:42:52.113Z,5.10
2023-02-24T18:45:15.727Z,5.00
2023-02-24T18:47:39.017Z,5.00
2023-02-24T18:50:02.341Z,5.00
2023-02-24T18:52:25.641Z,5.00
2023-02-24T18:54:50.565Z,5.00
2023-02-24T18:57:13.884Z,5.00
2023-02-24T18:59:37.058Z,4.90
2023-02-24T19:02:00.422Z,4.90
2023-02-24T19:04:24.815Z,5.00
2023-02-24T19:06:49.210Z,5.00
2023-02-24T19:09:13.288Z,5.00
2023-02-24T19:11:39.250Z,4.90
2023-02-24T19:14:02.855Z,4.90
2023-02-24T19:16:26.639Z,4.90
2023-02-24T19:18:52.386Z,5.00
2023-02-24T19:21:15.673Z,5.00
2023-02-24T19:23:40.166Z,5.00
2023-02-24T19:26:03.594Z,5.00
2023-02-24T19:28:28.206Z,5.00
2023-02-24T19:30:51.523Z,5.00
2023-02-24T19:33:14.837Z,5.00
2023-02-24T19:35:42.041Z,5.00
2023-02-24T19:38:05.299Z,4.90
2023-02-24T19:40:28.652Z,4.90
2023-02-24T19:42:53.147Z,4.90
2023-02-24T19:45:18.079Z,4.90
2023-02-24T19:47:42.785Z,4.90
2023-02-24T19:50:06.843Z,4.90
2023-02-24T19:52:30.107Z,5.00
2023-02-24T19:54:54.302Z,5.00
2023-02-24T19:57:18.009Z,4.90
2023-02-24T19:59:54.304Z,5.00
2023-02-24T20:02:19.049Z,5.00
2023-02-24T20:04:42.467Z,5.00
2023-02-24T20:07:06.435Z,4.90
2023-02-24T20:09:29.802Z,4.90
2023-02-24T20:11:54.283Z,5.00
2023-02-24T20:14:20.157Z,5.00
2023-02-24T20:16:44.727Z,4.90
2023-02-24T20:19:11.430Z,4.80
2023-02-24T20:21:35.345Z,4.70
2023-02-24T20:24:01.052Z,4.60
2023-02-24T20:26:24.546Z,4.60
2023-02-24T20:28:48.975Z,4.70
2023-02-24T20:31:15.306Z,4.60
2023-02-24T20:33:40.776Z,4.70
2023-02-24T20:36:10.481Z,4.80
2023-02-24T20:38:33.826Z,4.80
2023-02-24T20:41:01.089Z,4.80
2023-02-24T20:43:24.414Z,4.80
2023-02-24T20:45:47.634Z,4.70
2023-02-24T20:48:10.951Z,4.80
2023-02-24T20:50:35.559Z,4.70
2023-02-24T20:53:00.251Z,4.70
2023-02-24T20:55:23.862Z,4.70
2023-02-24T20:57:47.151Z,4.70
2023-02-24T21:00:12.173Z,4.70
2023-02-24T21:02:36.523Z,4.70
2023-02-24T21:04:59.948Z,4.70
2023-02-24T21:07:23.294Z,4.60
2023-02-24T21:09:48.033Z,4.50
2023-02-24T21:12:11.777Z,4.50
2023-02-24T21:14:35.114Z,4.50
2023-02-24T21:16:58.358Z,4.40
2023-02-24T21:19:21.863Z,4.40
2023-02-24T21:21:45.115Z,4.40
2023-02-24T21:24:09.554Z,4.40
2023-02-24T21:26:34.235Z,4.30
2023-02-24T21:28:59.363Z,4.30
2023-02-24T21:31:22.935Z,4.30
2023-02-24T21:33:51.252Z,4.30
2023-02-24T21:36:16.649Z,4.40
2023-02-24T21:38:41.308Z,4.40
2023-02-24T21:41:07.834Z,4.40
2023-02-24T21:43:32.724Z,4.40
2023-02-24T21:45:56.006Z,4.30
2023-02-24T21:48:19.347Z,4.20
2023-02-24T21:50:42.675Z,4.20
2023-02-24T21:53:06.143Z,4.10
2023-02-24T21:55:29.344Z,4.20
2023-02-24T21:57:53.019Z,4.20
2023-02-24T22:00:19.778Z,4.30
2023-02-24T22:02:43.208Z,4.30
2023-02-24T22:05:07.224Z,4.30
2023-02-24T22:07:30.927Z,4.30
2023-02-24T22:09:54.189Z,4.30
2023-02-24T22:12:17.493Z,4.30
2023-02-24T22:14:41.537Z,4.30
2023-02-24T22:17:06.183Z,4.40
2023-02-24T22:19:29.417Z,4.40
2023-02-24T22:21:52.804Z,4.30
2023-02-24T22:24:18.259Z,4.30
2023-02-24T22:26:41.761Z,4.30
2023-02-24T22:29:05.217Z,4.30
2023-02-24T22:31:31.857Z,4.30
2023-02-24T22:33:56.680Z,4.30
2023-02-24T22:36:22.712Z,4.20
2023-02-24T22:38:46.832Z,4.20
2023-02-24T22:41:14.611Z,4.20
2023-02-24T22:43:37.945Z,4.20
2023-02-24T22:46:05.078Z,4.20
2023-02-24T22:48:29.341Z,4.20
2023-02-24T22:50:57.202Z,4.20
2023-02-24T22:53:20.439Z,4.20
2023-02-24T22:55:47.534Z,4.20
2023-02-24T22:58:10.806Z,4.20
2023-02-24T23:00:34.129Z,4.20
2023-02-24T23:02:57.400Z,4.10
2023-02-24T23:05:20.666Z,4.10
2023-02-24T23:07:48.457Z,4.00
2023-02-24T23:10:13.055Z,4.00
2023-02-24T23:12:37.555Z,4.00
2023-02-24T23:15:00.822Z,3.90
2023-02-24T23:17:24.160Z,3.90
2023-02-24T23:19:47.502Z,3.90
2023-02-24T23:22:10.805Z,3.90
2023-02-24T23:24:36.094Z,3.90
2023-02-24T23:26:59.356Z,4.00
2023-02-24T23:29:24.614Z,4.00
2023-02-24T23:31:48.987Z,4.00
2023-02-24T23:34:13.397Z,4.00
2023-02-24T23:36:38.407Z,4.00
2023-02-24T23:39:01.816Z,4.00
2023-02-24T23:41:26.580Z,4.00
2023-02-24T23:43:49.888Z,4.00
2023-02-24T23:46:14.322Z,4.00
2023-02-24T23:48:38.194Z,4.00
2023-02-24T23:51:03.899Z,4.00
2023-02-24T23:53:27.388Z,4.00
2023-02-24T23:55:51.062Z,4.00
2023-02-24T23:58:16.629Z,4.10
